createdAt,value
2023-01-19T00:01:39.593Z,12.48
2023-01-19T00:04:07.716Z,10.75
2023-01-19T00:06:37.351Z,12.30
2023-01-19T00:09:05.293Z,13.45
2023-01-19T00:11:33.131Z,13.02
2023-01-19T00:14:01.075Z,12.38
2023-01-19T00:16:29.178Z,13.20
2023-01-19T00:18:57.056Z,10.60
2023-01-19T00:21:25.046Z,12.73
2023-01-19T00:23:54.320Z,13.90
2023-01-19T00:26:23.168Z,13.65
2023-01-19T00:28:51.283Z,11.15
2023-01-19T00:31:21.722Z,11.90
2023-01-19T00:33:51.580Z,14.38
2023-01-19T00:36:20.583Z,14.30
2023-01-19T00:38:48.653Z,13.27
2023-01-19T00:41:18.454Z,12.95
2023-01-19T00:43:45.628Z,15.25
2023-01-19T00:46:13.653Z,13.55
2023-01-19T00:48:41.753Z,13.88
2023-01-19T00:51:09.791Z,14.73
2023-01-19T00:53:37.723Z,15.02
2023-01-19T00:56:06.070Z,21.48
2023-01-19T00:58:35.656Z,20.90
2023-01-19T01:01:04.911Z,21.92
2023-01-19T01:03:33.719Z,20.50
2023-01-19T01:06:03.572Z,29.63
2023-01-19T01:08:31.584Z,29.20
2023-01-19T01:10:59.434Z,31.17
2023-01-19T01:13:28.466Z,18.77
2023-01-19T01:15:58.511Z,36.00
2023-01-19T01:18:26.417Z,37.20
2023-01-19T01:21:01.366Z,23.88
2023-01-19T01:23:29.387Z,24.58
2023-01-19T01:25:57.221Z,27.85
2023-01-19T01:28:25.510Z,17.75
2023-01-19T01:30:55.142Z,25.88
2023-01-19T01:33:41.113Z,35.65
2023-01-19T01:36:10.598Z,40.63
2023-01-19T01:38:39.288Z,17.65
2023-01-19T01:41:07.385Z,26.38
2023-01-19T01:43:46.794Z,35.00
2023-01-19T01:46:17.038Z,37.72
2023-01-19T01:48:52.426Z,31.65
2023-01-19T01:51:25.530Z,23.15
2023-01-19T01:54:01.336Z,28.33
2023-01-19T01:57:02.794Z,24.80
2023-01-19T01:59:39.370Z,29.48
2023-01-19T02:02:28.133Z,28.13
2023-01-19T02:05:04.019Z,28.27
2023-01-19T02:07:57.009Z,21.90
2023-01-19T02:10:42.440Z,33.90
2023-01-19T02:15:55.570Z,23.60
2023-01-19T02:18:25.578Z,26.48
2023-01-19T02:21:01.820Z,20.55
2023-01-19T02:23:50.557Z,23.83
2023-01-19T02:26:21.776Z,16.65
2023-01-19T02:28:54.099Z,18.92
2023-01-19T02:31:22.305Z,29.48
2023-01-19T02:34:04.456Z,29.50
2023-01-19T02:36:36.854Z,25.60
2023-01-19T02:39:09.419Z,26.23
2023-01-19T02:41:45.285Z,28.85
2023-01-19T02:44:16.290Z,27.80
2023-01-19T02:46:44.099Z,19.50
2023-01-19T02:49:14.905Z,18.55
2023-01-19T02:51:45.101Z,15.32
2023-01-19T02:54:31.096Z,12.02
2023-01-19T02:57:27.788Z,17.40
2023-01-19T03:00:09.704Z,17.40
2023-01-19T03:02:47.042Z,13.93
2023-01-19T03:05:30.554Z,16.65
2023-01-19T03:08:07.736Z,19.33
2023-01-19T03:10:46.628Z,19.67
2023-01-19T03:13:24.694Z,14.43
2023-01-19T03:15:56.622Z,15.60
2023-01-19T03:18:28.036Z,14.02
2023-01-19T03:20:58.952Z,13.45
2023-01-19T03:23:31.914Z,14.77
2023-01-19T03:26:02.895Z,13.02
2023-01-19T03:28:31.463Z,10.73
2023-01-19T03:31:04.348Z,10.40
2023-01-19T03:33:35.122Z,8.98
2023-01-19T03:36:08.974Z,11.02
2023-01-19T03:38:39.482Z,10.18
2023-01-19T03:41:15.510Z,11.30
2023-01-19T03:43:45.448Z,11.85
2023-01-19T03:46:17.318Z,10.40
2023-01-19T03:48:46.013Z,9.57
2023-01-19T03:51:14.491Z,12.82
2023-01-19T03:53:43.027Z,12.85
2023-01-19T03:56:19.376Z,12.50
2023-01-19T03:58:47.541Z,13.10
2023-01-19T04:01:16.119Z,14.23
2023-01-19T04:03:44.758Z,12.30
2023-01-19T04:06:12.800Z,14.35
2023-01-19T04:08:44.392Z,19.55
2023-01-19T04:11:13.269Z,25.58
2023-01-19T04:13:42.554Z,18.48
2023-01-19T04:16:12.399Z,18.40
2023-01-19T04:18:42.149Z,17.08
2023-01-19T04:21:10.517Z,15.98
2023-01-19T04:23:38.368Z,16.60
2023-01-19T04:26:08.196Z,11.70
2023-01-19T04:28:37.379Z,11.82
2023-01-19T04:31:07.641Z,14.80
2023-01-19T04:33:35.684Z,11.63
2023-01-19T04:36:04.257Z,16.17
2023-01-19T04:38:32.148Z,15.23
2023-01-19T04:41:00.015Z,13.88
2023-01-19T04:43:27.930Z,14.18
2023-01-19T04:45:56.184Z,12.52
2023-01-19T04:48:25.493Z,10.90
2023-01-19T04:50:53.945Z,11.25
2023-01-19T04:53:22.200Z,11.25
2023-01-19T04:55:54.535Z,11.85
2023-01-19T04:58:22.430Z,11.70
2023-01-19T05:01:15.875Z,17.58
2023-01-19T05:03:45.317Z,11.02
2023-01-19T05:06:13.173Z,13.07
2023-01-19T05:08:40.961Z,13.05
2023-01-19T05:11:08.801Z,12.68
2023-01-19T05:13:37.357Z,13.52
2023-01-19T05:16:06.200Z,10.43
2023-01-19T05:18:37.090Z,14.57
2023-01-19T05:21:07.542Z,12.77
2023-01-19T05:23:35.534Z,11.38
2023-01-19T05:26:04.026Z,12.68
2023-01-19T05:28:33.551Z,12.98
2023-01-19T05:31:01.490Z,12.23
2023-01-19T05:33:29.323Z,10.25
2023-01-19T05:35:57.409Z,11.10
2023-01-19T05:38:35.457Z,9.27
2023-01-19T05:41:04.461Z,9.55
2023-01-19T05:43:32.323Z,11.80
2023-01-19T05:46:00.621Z,10.80
2023-01-19T05:48:28.722Z,9.77
2023-01-19T05:50:59.309Z,11.43
2023-01-19T05:53:29.216Z,10.75
2023-01-19T05:56:01.317Z,9.30
2023-01-19T05:58:29.409Z,11.23
2023-01-19T06:00:57.340Z,9.45
2023-01-19T06:03:25.367Z,8.48
2023-01-19T06:05:53.158Z,10.07
2023-01-19T06:08:20.985Z,10.00
2023-01-19T06:10:50.160Z,8.43
2023-01-19T06:13:18.194Z,8.38
2023-01-19T06:15:46.840Z,10.45
2023-01-19T06:18:15.829Z,12.85
2023-01-19T06:20:43.826Z,7.85
2023-01-19T06:23:11.705Z,7.60
2023-01-19T06:25:39.574Z,9.43
2023-01-19T06:28:08.692Z,11.30
2023-01-19T06:30:36.585Z,7.68
2023-01-19T06:33:04.517Z,10.10
2023-01-19T06:35:32.358Z,8.50
2023-01-19T06:38:00.136Z,7.05
2023-01-19T06:40:27.970Z,8.82
2023-01-19T06:42:55.815Z,3.63
2023-01-19T06:45:24.954Z,6.70
2023-01-19T06:47:52.770Z,4.00
2023-01-19T06:50:20.851Z,13.85
2023-01-19T06:52:50.978Z,7.82
2023-01-19T06:55:19.087Z,7.75
2023-01-19T06:57:47.641Z,6.38
2023-01-19T07:00:17.248Z,7.68
2023-01-19T07:02:46.588Z,8.75
2023-01-19T07:05:14.651Z,8.23
2023-01-19T07:07:43.269Z,9.25
2023-01-19T07:10:13.023Z,12.18
2023-01-19T07:12:40.911Z,12.77
2023-01-19T07:15:11.695Z,12.07
2023-01-19T07:17:39.546Z,10.73
2023-01-19T07:20:14.349Z,8.75
2023-01-19T07:22:43.496Z,12.87
2023-01-19T07:25:11.589Z,9.50
2023-01-19T07:27:40.439Z,10.77
2023-01-19T07:30:09.588Z,7.25
2023-01-19T07:32:38.259Z,10.13
2023-01-19T07:35:08.088Z,10.13
2023-01-19T07:37:36.339Z,10.05
2023-01-19T07:40:04.603Z,11.10
2023-01-19T07:42:32.419Z,10.68
2023-01-19T07:45:00.957Z,11.13
2023-01-19T07:47:28.779Z,10.88
2023-01-19T07:49:56.610Z,12.20
2023-01-19T07:52:25.756Z,15.52
2023-01-19T07:54:53.582Z,10.75
2023-01-19T07:57:22.036Z,10.82
2023-01-19T07:59:49.860Z,11.68
2023-01-19T08:02:17.751Z,14.25
2023-01-19T08:04:48.511Z,13.73
2023-01-19T08:07:16.489Z,10.90
2023-01-19T08:09:45.658Z,15.18
2023-01-19T08:12:13.449Z,12.85
2023-01-19T08:14:41.368Z,11.80
2023-01-19T08:17:13.895Z,11.82
2023-01-19T08:19:43.338Z,11.68
2023-01-19T08:22:11.123Z,14.63
2023-01-19T08:24:39.116Z,9.73
2023-01-19T08:27:09.782Z,12.23
2023-01-19T08:29:38.222Z,15.38
2023-01-19T08:32:06.986Z,13.88
2023-01-19T08:34:35.017Z,13.85
2023-01-19T08:37:02.801Z,14.43
2023-01-19T08:39:30.559Z,12.07
2023-01-19T08:41:59.645Z,15.10
2023-01-19T08:44:29.128Z,9.85
2023-01-19T08:46:56.982Z,12.32
2023-01-19T08:49:24.933Z,12.85
2023-01-19T08:51:52.732Z,12.23
2023-01-19T08:54:21.703Z,16.50
2023-01-19T08:56:49.868Z,13.35
2023-01-19T08:59:18.153Z,14.32
2023-01-19T09:01:48.113Z,12.27
2023-01-19T09:04:16.093Z,14.38
2023-01-19T09:06:43.883Z,14.50
2023-01-19T09:09:11.802Z,16.40
2023-01-19T09:11:39.561Z,19.52
2023-01-19T09:14:08.331Z,16.83
2023-01-19T09:16:36.313Z,17.02
2023-01-19T09:19:08.481Z,18.20
2023-01-19T09:21:36.488Z,16.38
2023-01-19T09:24:04.501Z,18.95
2023-01-19T09:26:33.281Z,15.82
2023-01-19T09:29:01.191Z,22.88
2023-01-19T09:31:29.206Z,16.35
2023-01-19T09:33:57.045Z,14.48
2023-01-19T09:36:26.327Z,15.95
2023-01-19T09:38:54.146Z,18.50
2023-01-19T09:41:24.985Z,21.33
2023-01-19T09:43:57.680Z,20.00
2023-01-19T09:46:31.147Z,18.27
2023-01-19T09:49:04.809Z,25.52
2023-01-19T09:51:37.460Z,19.30
2023-01-19T09:54:12.064Z,23.60
2023-01-19T09:56:40.064Z,23.63
2023-01-19T09:59:20.648Z,21.67
2023-01-19T10:02:05.578Z,18.05
2023-01-19T10:04:38.678Z,22.13
2023-01-19T10:07:17.124Z,18.00
2023-01-19T10:10:08.359Z,16.38
2023-01-19T10:12:44.660Z,18.75
2023-01-19T10:15:24.549Z,19.08
2023-01-19T10:18:03.890Z,18.15
2023-01-19T10:20:37.682Z,21.00
2023-01-19T10:23:26.300Z,14.93
2023-01-19T10:25:56.045Z,12.20
2023-01-19T10:28:26.667Z,13.10
2023-01-19T10:30:56.357Z,15.02
2023-01-19T10:33:24.490Z,22.38
2023-01-19T10:35:52.781Z,18.20
2023-01-19T10:38:22.717Z,16.50
2023-01-19T10:40:58.443Z,14.40
2023-01-19T10:43:41.552Z,16.38
2023-01-19T10:46:18.543Z,17.70
2023-01-19T10:48:50.410Z,15.45
2023-01-19T10:51:19.049Z,15.63
2023-01-19T10:53:58.778Z,14.73
2023-01-19T10:56:30.882Z,17.30
2023-01-19T10:59:01.693Z,16.20
2023-01-19T11:01:31.157Z,17.35
2023-01-19T11:04:05.455Z,18.55
2023-01-19T11:06:35.638Z,15.27
2023-01-19T11:09:18.522Z,17.05
2023-01-19T11:11:50.046Z,18.15
2023-01-19T11:14:20.938Z,16.05
2023-01-19T11:16:51.525Z,16.25
2023-01-19T11:19:27.505Z,18.13
2023-01-19T11:22:10.996Z,21.40
2023-01-19T11:24:41.046Z,17.17
2023-01-19T11:27:08.950Z,22.05
2023-01-19T11:29:38.907Z,22.50
2023-01-19T11:32:21.142Z,18.65
2023-01-19T11:34:49.569Z,23.13
2023-01-19T11:37:34.500Z,18.67
2023-01-19T11:40:08.679Z,20.63
2023-01-19T11:42:37.627Z,23.00
2023-01-19T11:45:13.577Z,20.35
2023-01-19T11:47:44.317Z,17.25
2023-01-19T11:50:22.412Z,23.75
2023-01-19T11:52:54.468Z,16.85
2023-01-19T11:55:38.970Z,18.05
2023-01-19T11:58:07.093Z,15.15
2023-01-19T12:00:38.577Z,14.82
2023-01-19T12:03:15.051Z,17.10
2023-01-19T12:05:48.731Z,12.07
2023-01-19T12:08:21.756Z,22.08
2023-01-19T12:10:54.187Z,21.23
2023-01-19T12:13:24.232Z,27.90
2023-01-19T12:15:57.749Z,21.40
2023-01-19T12:18:29.335Z,22.63
2023-01-19T12:20:58.701Z,19.65
2023-01-19T12:23:36.775Z,22.50
2023-01-19T12:26:31.846Z,20.30
2023-01-19T12:29:04.638Z,18.02
2023-01-19T12:31:32.717Z,17.63
2023-01-19T12:34:36.038Z,14.57
2023-01-19T12:37:05.726Z,19.15
2023-01-19T12:39:35.336Z,15.23
2023-01-19T12:42:14.512Z,14.48
2023-01-19T12:44:43.437Z,16.90
2023-01-19T12:47:24.439Z,15.82
2023-01-19T12:49:56.432Z,16.67
2023-01-19T12:52:34.170Z,15.80
2023-01-19T12:55:07.702Z,15.82
2023-01-19T12:57:41.711Z,16.23
2023-01-19T13:00:30.480Z,14.45
2023-01-19T13:02:59.894Z,13.05
2023-01-19T13:05:57.859Z,16.98
2023-01-19T13:08:29.756Z,15.00
2023-01-19T13:11:20.727Z,10.98
2023-01-19T13:14:28.213Z,15.27
2023-01-19T13:17:22.285Z,16.85
2023-01-19T13:19:59.401Z,17.65
2023-01-19T13:23:04.587Z,18.40
2023-01-19T13:25:36.412Z,12.40
2023-01-19T13:28:10.434Z,15.25
2023-01-19T13:30:48.342Z,14.52
2023-01-19T13:33:22.547Z,16.40
2023-01-19T13:35:53.828Z,15.57
2023-01-19T13:38:24.031Z,14.52
2023-01-19T13:40:52.885Z,13.15
2023-01-19T13:43:27.674Z,19.80
2023-01-19T13:45:56.383Z,12.13
2023-01-19T13:48:26.565Z,17.55
2023-01-19T13:50:59.624Z,14.35
2023-01-19T13:53:27.825Z,14.32
2023-01-19T13:56:20.455Z,13.98
2023-01-19T13:59:15.603Z,15.68
2023-01-19T14:04:28.931Z,14.57
2023-01-19T14:06:59.778Z,13.02
2023-01-19T14:09:27.635Z,13.07
2023-01-19T14:12:12.943Z,16.48
2023-01-19T14:14:41.076Z,17.77
2023-01-19T14:17:23.247Z,15.50
2023-01-19T14:19:53.866Z,14.68
2023-01-19T14:22:22.379Z,10.45
2023-01-19T14:24:50.208Z,14.68
2023-01-19T14:27:20.981Z,15.43
2023-01-19T14:29:50.621Z,15.07
2023-01-19T14:32:20.713Z,13.88
2023-01-19T14:34:51.121Z,15.52
2023-01-19T14:37:29.012Z,14.05
2023-01-19T14:40:04.437Z,13.38
2023-01-19T14:42:35.847Z,15.93
2023-01-19T14:45:07.359Z,12.70
2023-01-19T14:47:38.636Z,14.63
2023-01-19T14:50:20.577Z,15.35
2023-01-19T14:52:56.293Z,13.50
2023-01-19T14:55:28.892Z,16.45
2023-01-19T14:57:56.718Z,12.82
2023-01-19T15:00:25.252Z,19.33
2023-01-19T15:02:53.398Z,12.48
2023-01-19T15:05:21.500Z,14.55
2023-01-19T15:07:49.367Z,12.07
2023-01-19T15:10:21.739Z,12.10
2023-01-19T15:12:50.811Z,12.02
2023-01-19T15:15:22.655Z,16.90
2023-01-19T15:17:51.269Z,14.32
2023-01-19T15:20:20.825Z,12.50
2023-01-19T15:22:49.559Z,13.60
2023-01-19T15:25:20.696Z,11.43
2023-01-19T15:27:49.622Z,14.13
2023-01-19T15:30:20.566Z,13.52
2023-01-19T15:32:48.634Z,13.52
2023-01-19T15:35:19.150Z,14.20
2023-01-19T15:37:47.453Z,14.57
2023-01-19T15:40:16.254Z,15.45
2023-01-19T15:42:45.919Z,16.30
2023-01-19T15:45:35.870Z,16.42
2023-01-19T15:48:05.794Z,12.82
2023-01-19T15:50:34.481Z,13.50
2023-01-19T15:53:02.610Z,20.50
2023-01-19T15:55:30.398Z,17.33
2023-01-19T15:58:01.590Z,14.02
2023-01-19T16:00:32.427Z,17.98
2023-01-19T16:03:02.078Z,13.65
2023-01-19T16:05:42.516Z,14.07
2023-01-19T16:08:11.580Z,17.88
2023-01-19T16:10:39.445Z,13.30
2023-01-19T16:13:08.873Z,17.65
2023-01-19T16:15:37.404Z,11.68
2023-01-19T16:18:06.131Z,12.82
2023-01-19T16:20:34.082Z,10.23
2023-01-19T16:23:14.603Z,12.90
2023-01-19T16:25:43.098Z,12.32
2023-01-19T16:28:12.411Z,10.90
2023-01-19T16:30:40.373Z,12.57
2023-01-19T16:33:11.505Z,12.00
2023-01-19T16:35:39.541Z,12.52
2023-01-19T16:38:09.299Z,14.02
2023-01-19T16:40:37.581Z,14.00
2023-01-19T16:43:05.503Z,12.73
2023-01-19T16:45:34.752Z,14.45
2023-01-19T16:48:02.793Z,13.48
2023-01-19T16:50:30.565Z,13.40
2023-01-19T16:52:59.026Z,14.95
2023-01-19T16:55:26.943Z,14.48
2023-01-19T16:57:56.382Z,12.13
2023-01-19T17:00:24.525Z,16.20
2023-01-19T17:02:53.818Z,13.52
2023-01-19T17:05:22.242Z,12.65
2023-01-19T17:07:50.053Z,14.68
2023-01-19T17:10:18.237Z,13.48
2023-01-19T17:12:46.493Z,12.05
2023-01-19T17:15:14.517Z,12.95
2023-01-19T17:17:42.469Z,14.32
2023-01-19T17:20:13.036Z,14.18
2023-01-19T17:22:41.144Z,12.50
2023-01-19T17:25:09.702Z,12.13
2023-01-19T17:27:37.526Z,15.07
2023-01-19T17:30:06.014Z,10.63
2023-01-19T17:32:33.818Z,13.18
2023-01-19T17:35:02.146Z,13.13
2023-01-19T17:37:31.613Z,14.07
2023-01-19T17:39:59.640Z,12.15
2023-01-19T17:42:28.524Z,14.05
2023-01-19T17:44:58.751Z,16.42
2023-01-19T17:47:28.227Z,16.95
2023-01-19T17:49:56.154Z,10.57
2023-01-19T17:52:23.964Z,14.77
2023-01-19T17:54:53.247Z,12.80
2023-01-19T17:57:21.144Z,17.30
2023-01-19T17:59:48.989Z,21.88
2023-01-19T18:02:16.926Z,37.03
2023-01-19T18:04:44.990Z,22.23
2023-01-19T18:07:12.810Z,26.52
2023-01-19T18:09:40.630Z,19.98
2023-01-19T18:12:10.126Z,20.85
2023-01-19T18:14:38.683Z,22.63
2023-01-19T18:17:06.723Z,20.55
2023-01-19T18:19:34.870Z,17.77
2023-01-19T18:22:03.398Z,15.45
2023-01-19T18:24:31.295Z,17.17
2023-01-19T18:26:59.110Z,12.52
2023-01-19T18:32:27.108Z,14.35
2023-01-19T18:34:55.102Z,15.07
2023-01-19T18:37:23.001Z,12.65
2023-01-19T18:39:50.860Z,12.27
2023-01-19T18:42:19.014Z,14.13
2023-01-19T18:44:48.286Z,13.30
2023-01-19T18:47:16.168Z,15.88
2023-01-19T18:49:44.252Z,16.27
2023-01-19T18:52:12.330Z,14.52
2023-01-19T18:54:40.130Z,22.95
2023-01-19T18:57:08.038Z,24.30
2023-01-19T18:59:35.870Z,27.63
2023-01-19T19:02:06.748Z,30.08
2023-01-19T19:04:34.732Z,28.10
2023-01-19T19:07:02.534Z,28.23
2023-01-19T19:09:30.437Z,28.70
2023-01-19T19:11:58.320Z,25.55
2023-01-19T19:14:26.359Z,29.30
2023-01-19T19:16:54.216Z,29.10
2023-01-19T19:19:23.412Z,24.50
2023-01-19T19:21:52.109Z,29.48
2023-01-19T19:24:20.277Z,31.48
2023-01-19T19:26:48.164Z,34.25
2023-01-19T19:29:15.951Z,35.45
2023-01-19T19:31:43.841Z,35.22
2023-01-19T19:34:12.650Z,35.95
2023-01-19T19:36:42.067Z,32.53
2023-01-19T19:39:10.147Z,33.00
2023-01-19T19:41:38.818Z,33.83
2023-01-19T19:44:06.858Z,29.15
2023-01-19T19:46:34.751Z,28.13
2023-01-19T19:49:02.622Z,26.23
2023-01-19T19:51:30.464Z,25.77
2023-01-19T19:54:01.844Z,24.55
2023-01-19T19:56:30.973Z,24.30
2023-01-19T19:59:00.889Z,24.95
2023-01-19T20:01:33.551Z,21.65
2023-01-19T20:04:07.045Z,24.85
2023-01-19T20:06:38.590Z,18.60
2023-01-19T20:09:09.803Z,18.38
2023-01-19T20:11:38.780Z,15.20
2023-01-19T20:14:06.796Z,14.35
2023-01-19T20:16:34.696Z,12.75
2023-01-19T20:19:02.885Z,12.95
2023-01-19T20:21:32.320Z,18.75
2023-01-19T20:24:01.937Z,13.57
2023-01-19T20:26:40.158Z,13.23
2023-01-19T20:29:10.133Z,13.95
2023-01-19T20:31:56.181Z,17.85
2023-01-19T20:34:27.894Z,16.63
2023-01-19T20:36:56.814Z,19.60
2023-01-19T20:39:25.832Z,16.52
2023-01-19T20:41:55.032Z,18.50
2023-01-19T20:44:26.594Z,15.65
2023-01-19T20:46:55.729Z,16.98
2023-01-19T20:49:23.927Z,17.58
2023-01-19T20:51:52.649Z,16.08
2023-01-19T20:54:24.290Z,16.88
2023-01-19T20:56:52.235Z,17.83
2023-01-19T20:59:21.452Z,17.75
2023-01-19T21:01:49.816Z,17.52
2023-01-19T21:04:18.374Z,15.95
2023-01-19T21:06:46.303Z,21.65
2023-01-19T21:09:14.193Z,24.25
2023-01-19T21:11:42.031Z,20.67
2023-01-19T21:14:09.967Z,16.15
2023-01-19T21:16:39.188Z,21.45
2023-01-19T21:19:07.093Z,20.10
2023-01-19T21:21:34.936Z,20.60
2023-01-19T21:24:04.586Z,21.90
2023-01-19T21:26:33.341Z,19.17
2023-01-19T21:29:02.844Z,25.52
2023-01-19T21:31:31.345Z,23.48
2023-01-19T21:34:00.726Z,23.45
2023-01-19T21:36:28.516Z,30.00
2023-01-19T21:39:00.485Z,33.45
2023-01-19T21:41:30.416Z,34.50
2023-01-19T21:43:58.493Z,30.25
2023-01-19T21:46:29.018Z,31.63
2023-01-19T21:48:57.222Z,33.75
2023-01-19T21:51:26.494Z,26.98
2023-01-19T21:53:55.966Z,22.17
2023-01-19T21:56:23.926Z,21.15
2023-01-19T21:58:51.782Z,22.38
2023-01-19T22:01:20.727Z,21.15
2023-01-19T22:03:48.586Z,21.10
2023-01-19T22:06:16.767Z,21.27
2023-01-19T22:08:47.046Z,23.08
2023-01-19T22:11:17.159Z,27.05
2023-01-19T22:13:45.638Z,25.90
2023-01-19T22:16:15.989Z,23.38
2023-01-19T22:18:46.303Z,21.15
2023-01-19T22:21:16.153Z,20.00
2023-01-19T22:23:45.688Z,23.15
2023-01-19T22:26:13.651Z,21.92
2023-01-19T22:28:41.513Z,20.50
2023-01-19T22:31:12.490Z,18.52
2023-01-19T22:33:40.627Z,17.70
2023-01-19T22:36:14.984Z,16.65
2023-01-19T22:38:44.319Z,15.50
2023-01-19T22:41:15.251Z,13.27
2023-01-19T22:43:43.648Z,15.80
2023-01-19T22:46:11.943Z,14.75
2023-01-19T22:48:40.413Z,15.40
2023-01-19T22:51:08.533Z,16.67
2023-01-19T22:53:36.352Z,14.77
2023-01-19T22:56:12.154Z,14.88
2023-01-19T23:01:10.873Z,13.23
2023-01-19T23:03:39.299Z,16.27
2023-01-19T23:06:08.452Z,14.27
2023-01-19T23:08:37.063Z,14.93
2023-01-19T23:11:06.346Z,11.98
2023-01-19T23:13:34.780Z,12.55
2023-01-19T23:16:04.622Z,12.55
2023-01-19T23:18:33.343Z,15.48
2023-01-19T23:21:04.885Z,10.98
2023-01-19T23:23:33.300Z,11.35
2023-01-19T23:26:02.365Z,12.65
2023-01-19T23:28:30.240Z,13.18
2023-01-19T23:30:58.617Z,11.00
2023-01-19T23:33:28.077Z,13.40
2023-01-19T23:35:56.517Z,10.32
2023-01-19T23:38:24.413Z,10.27
2023-01-19T23:40:52.266Z,10.43
2023-01-19T23:43:20.577Z,12.68
2023-01-19T23:45:49.013Z,13.27
2023-01-19T23:48:16.906Z,11.23
2023-01-19T23:50:46.149Z,10.98
2023-01-19T23:53:14.144Z,11.05
2023-01-19T23:55:41.958Z,10.98
2023-01-19T23:58:09.810Z,11.45
